createdAt,value
2019-05-30T00:00:33.367Z,3.77
2019-05-30T00:03:02.735Z,4.33
2019-05-30T00:05:32.109Z,4.30
2019-05-30T00:08:02.420Z,4.63
2019-05-30T00:10:31.942Z,4.00
2019-05-30T00:13:01.324Z,4.20
2019-05-30T00:15:31.070Z,4.53
2019-05-30T00:18:00.865Z,4.53
2019-05-30T00:20:30.400Z,3.77
2019-05-30T00:23:00.908Z,4.03
2019-05-30T00:25:30.440Z,3.90
2019-05-30T00:27:59.817Z,3.83
2019-05-30T00:30:29.196Z,3.80
2019-05-30T00:32:58.946Z,4.00
2019-05-30T00:35:28.327Z,4.33
2019-05-30T00:37:57.764Z,4.03
2019-05-30T00:40:27.120Z,3.47
2019-05-30T00:42:56.786Z,4.20
2019-05-30T00:45:27.255Z,4.20
2019-05-30T00:47:56.632Z,4.83
2019-05-30T00:50:26.008Z,4.00
2019-05-30T00:52:56.427Z,4.97
2019-05-30T00:55:25.942Z,4.10
2019-05-30T00:57:56.595Z,4.33
2019-05-30T01:00:41.947Z,4.60
2019-05-30T01:02:59.883Z,5.07
2019-05-30T01:05:29.251Z,3.97
2019-05-30T01:07:58.839Z,4.53
2019-05-30T01:10:28.286Z,4.67
2019-05-30T01:12:59.776Z,4.60
2019-05-30T01:15:28.794Z,4.33
2019-05-30T01:17:59.054Z,5.03
2019-05-30T01:20:28.528Z,5.47
2019-05-30T01:22:59.087Z,5.37
2019-05-30T01:25:28.672Z,5.60
2019-05-30T01:27:59.444Z,5.87
2019-05-30T01:30:28.973Z,6.20
2019-05-30T01:32:59.569Z,5.37
2019-05-30T01:35:29.006Z,6.13
2019-05-30T01:37:59.565Z,6.13
2019-05-30T01:40:29.128Z,5.67
2019-05-30T01:42:59.821Z,5.20
2019-05-30T01:45:29.364Z,5.00
2019-05-30T01:48:00.082Z,6.03
2019-05-30T01:50:32.935Z,5.00
2019-05-30T01:53:02.647Z,6.13
2019-05-30T01:55:32.070Z,5.40
2019-05-30T01:58:03.244Z,5.00
2019-05-30T02:00:40.947Z,4.30
2019-05-30T02:03:10.594Z,4.07
2019-05-30T02:05:40.209Z,4.13
2019-05-30T02:08:10.191Z,3.70
2019-05-30T02:10:39.792Z,3.17
2019-05-30T02:13:09.820Z,3.07
2019-05-30T02:15:39.548Z,3.33
2019-05-30T02:18:10.025Z,3.03
2019-05-30T02:20:39.793Z,3.17
2019-05-30T02:23:11.098Z,3.27
2019-05-30T02:25:40.429Z,3.50
2019-05-30T02:28:10.411Z,3.27
2019-05-30T02:30:39.981Z,3.50
2019-05-30T02:33:11.843Z,3.20
2019-05-30T02:35:41.466Z,3.37
2019-05-30T02:38:11.847Z,3.50
2019-05-30T02:40:41.736Z,3.37
2019-05-30T02:43:12.163Z,3.33
2019-05-30T02:45:41.959Z,2.93
2019-05-30T02:48:12.354Z,2.83
2019-05-30T02:50:42.478Z,3.03
2019-05-30T02:53:13.083Z,3.80
2019-05-30T02:55:43.153Z,3.60
2019-05-30T02:58:13.131Z,3.43
2019-05-30T03:00:42.895Z,4.23
2019-05-30T03:03:14.251Z,4.03
2019-05-30T03:05:43.495Z,4.17
2019-05-30T03:08:14.351Z,3.80
2019-05-30T03:10:44.423Z,4.40
2019-05-30T03:13:13.861Z,4.73
2019-05-30T03:15:43.509Z,5.47
2019-05-30T03:18:15.022Z,5.90
2019-05-30T03:20:44.928Z,5.97
2019-05-30T03:23:15.008Z,5.57
2019-05-30T03:25:44.516Z,5.60
2019-05-30T03:28:14.020Z,6.10
2019-05-30T03:30:45.877Z,6.17
2019-05-30T03:33:36.133Z,5.97
2019-05-30T03:35:47.082Z,6.77
2019-05-30T03:38:16.809Z,6.93
2019-05-30T03:40:46.428Z,6.20
2019-05-30T03:43:16.250Z,6.40
2019-05-30T03:45:46.088Z,7.13
2019-05-30T03:48:20.581Z,7.43
2019-05-30T03:50:53.483Z,7.13
2019-05-30T03:53:23.596Z,7.30
2019-05-30T03:56:00.528Z,8.73
2019-05-30T03:59:20.989Z,7.37
2019-05-30T04:01:57.719Z,7.97
2019-05-30T04:04:31.744Z,8.37
2019-05-30T04:07:15.774Z,8.20
2019-05-30T04:09:48.967Z,8.23
2019-05-30T04:12:40.864Z,7.87
2019-05-30T04:15:32.128Z,7.77
2019-05-30T04:18:01.669Z,7.37
2019-05-30T04:20:31.485Z,8.30
2019-05-30T04:23:00.868Z,8.30
2019-05-30T04:25:30.323Z,7.80
2019-05-30T04:27:59.790Z,7.40
2019-05-30T04:30:29.160Z,7.90
2019-05-30T04:33:16.157Z,7.33
2019-05-30T04:35:29.654Z,8.10
2019-05-30T04:37:59.027Z,7.90
2019-05-30T04:40:28.420Z,7.80
2019-05-30T04:42:57.796Z,7.40
2019-05-30T04:45:28.224Z,7.17
2019-05-30T04:47:57.933Z,8.67
2019-05-30T04:50:27.304Z,8.63
2019-05-30T04:52:56.751Z,8.10
2019-05-30T04:55:26.298Z,7.57
2019-05-30T04:57:56.135Z,9.17
2019-05-30T05:00:26.110Z,7.97
2019-05-30T05:02:55.497Z,8.13
2019-05-30T05:05:27.057Z,8.77
2019-05-30T05:07:56.260Z,9.10
2019-05-30T05:10:25.701Z,9.73
2019-05-30T05:12:55.159Z,10.43
2019-05-30T05:15:24.597Z,9.80
2019-05-30T05:17:53.979Z,10.10
2019-05-30T05:20:23.638Z,10.67
2019-05-30T05:22:53.128Z,9.40
2019-05-30T05:25:23.525Z,9.77
2019-05-30T05:27:53.066Z,10.43
2019-05-30T05:30:22.801Z,10.97
2019-05-30T05:32:52.238Z,10.90
2019-05-30T05:35:22.907Z,10.27
2019-05-30T05:37:52.387Z,10.70
2019-05-30T05:40:22.438Z,10.13
2019-05-30T05:42:51.927Z,10.67
2019-05-30T05:45:22.811Z,10.70
2019-05-30T05:47:52.288Z,9.93
2019-05-30T05:50:22.560Z,10.00
2019-05-30T05:52:51.922Z,10.20
2019-05-30T05:55:21.299Z,11.70
2019-05-30T05:57:50.712Z,11.03
2019-05-30T06:00:23.348Z,10.37
2019-05-30T06:02:53.089Z,11.07
2019-05-30T06:05:22.472Z,10.37
2019-05-30T06:07:51.859Z,11.23
2019-05-30T06:10:21.851Z,10.83
2019-05-30T06:12:51.260Z,11.53
2019-05-30T06:15:20.853Z,11.47
2019-05-30T06:17:50.271Z,12.30
2019-05-30T06:20:21.534Z,11.13
2019-05-30T06:22:50.919Z,11.40
2019-05-30T06:25:22.315Z,10.47
2019-05-30T06:27:51.715Z,11.00
2019-05-30T06:30:22.449Z,10.73
2019-05-30T06:32:51.760Z,10.80
2019-05-30T06:35:21.550Z,11.20
2019-05-30T06:37:51.372Z,10.83
2019-05-30T06:40:21.386Z,11.70
2019-05-30T06:42:50.860Z,10.77
2019-05-30T06:45:21.828Z,10.63
2019-05-30T06:47:51.687Z,12.07
2019-05-30T06:50:22.478Z,10.77
2019-05-30T06:52:51.989Z,10.97
2019-05-30T06:55:21.380Z,10.73
2019-05-30T06:57:50.755Z,9.53
2019-05-30T07:00:21.752Z,10.47
2019-05-30T07:02:51.173Z,11.13
2019-05-30T07:05:21.600Z,11.00
2019-05-30T07:07:51.828Z,10.23
2019-05-30T07:10:22.708Z,10.03
2019-05-30T07:12:52.216Z,10.67
2019-05-30T07:15:23.111Z,10.43
2019-05-30T07:17:52.594Z,9.90
2019-05-30T07:20:23.443Z,10.70
2019-05-30T07:22:52.855Z,10.33
2019-05-30T07:25:23.665Z,9.67
2019-05-30T07:27:53.212Z,10.67
2019-05-30T07:30:23.834Z,9.53
2019-05-30T07:32:53.173Z,10.20
2019-05-30T07:35:23.923Z,10.57
2019-05-30T07:37:53.305Z,9.83
2019-05-30T07:40:22.851Z,9.97
2019-05-30T07:42:52.252Z,9.60
2019-05-30T07:45:22.338Z,8.60
2019-05-30T07:47:51.725Z,9.53
2019-05-30T07:50:21.241Z,9.00
2019-05-30T07:52:50.631Z,10.73
2019-05-30T07:55:21.121Z,8.00
2019-05-30T07:57:50.496Z,8.97
2019-05-30T08:00:21.994Z,8.40
2019-05-30T08:02:51.372Z,8.43
2019-05-30T08:05:24.612Z,9.23
2019-05-30T08:07:51.863Z,9.10
2019-05-30T08:10:22.587Z,10.97
2019-05-30T08:12:51.968Z,10.27
2019-05-30T08:15:21.586Z,10.40
2019-05-30T08:17:50.964Z,8.93
2019-05-30T08:20:20.954Z,9.27
2019-05-30T08:22:50.330Z,9.00
2019-05-30T08:25:19.784Z,8.90
2019-05-30T08:27:49.170Z,8.73
2019-05-30T08:30:19.565Z,8.57
2019-05-30T08:32:48.932Z,7.60
2019-05-30T08:35:18.745Z,8.03
2019-05-30T08:37:48.134Z,7.73
2019-05-30T08:40:19.043Z,8.40
2019-05-30T08:42:48.422Z,7.73
2019-05-30T08:45:19.283Z,8.13
2019-05-30T08:47:48.667Z,7.90
2019-05-30T08:50:19.044Z,7.43
2019-05-30T08:52:48.420Z,7.67
2019-05-30T08:55:19.401Z,7.30
2019-05-30T08:57:51.187Z,7.33
2019-05-30T09:00:21.671Z,7.13
2019-05-30T09:02:51.053Z,7.23
2019-05-30T09:05:20.670Z,7.03
2019-05-30T09:07:50.038Z,7.20
2019-05-30T09:10:20.456Z,6.87
2019-05-30T09:12:49.837Z,7.30
2019-05-30T09:15:22.068Z,7.17
2019-05-30T09:17:50.861Z,6.47
2019-05-30T09:20:20.675Z,6.93
2019-05-30T09:22:50.068Z,6.77
2019-05-30T09:25:20.349Z,6.83
2019-05-30T09:27:49.722Z,6.43
2019-05-30T09:30:20.108Z,7.00
2019-05-30T09:32:49.555Z,7.20
2019-05-30T09:35:19.742Z,6.93
2019-05-30T09:37:49.528Z,7.57
2019-05-30T09:40:20.093Z,7.10
2019-05-30T09:42:50.363Z,6.50
2019-05-30T09:45:22.516Z,6.33
2019-05-30T09:47:51.893Z,7.50
2019-05-30T09:50:21.807Z,7.77
2019-05-30T09:52:51.445Z,7.27
2019-05-30T09:55:22.171Z,7.17
2019-05-30T09:57:51.813Z,7.00
2019-05-30T10:00:23.449Z,8.57
2019-05-30T10:02:52.842Z,7.93
2019-05-30T10:05:25.078Z,8.43
2019-05-30T10:07:54.553Z,9.37
2019-05-30T10:10:24.736Z,8.67
2019-05-30T10:12:54.122Z,8.03
2019-05-30T10:15:24.049Z,9.37
2019-05-30T10:17:54.564Z,7.57
2019-05-30T10:20:24.522Z,7.80
2019-05-30T10:22:54.037Z,8.43
2019-05-30T10:25:23.670Z,6.67
2019-05-30T10:27:54.765Z,7.93
2019-05-30T10:30:26.420Z,7.17
2019-05-30T10:32:57.348Z,7.43
2019-05-30T10:35:29.822Z,7.20
2019-05-30T10:37:58.259Z,8.17
2019-05-30T10:40:27.877Z,7.60
2019-05-30T10:42:57.257Z,6.30
2019-05-30T10:45:26.976Z,6.27
2019-05-30T10:47:57.535Z,6.60
2019-05-30T10:50:27.120Z,6.67
2019-05-30T10:52:56.496Z,7.10
2019-05-30T10:55:26.589Z,6.33
2019-05-30T10:57:59.326Z,6.83
2019-05-30T11:00:48.565Z,7.17
2019-05-30T11:03:18.856Z,8.33
2019-05-30T11:05:55.518Z,7.65
2019-05-30T11:08:29.638Z,8.07
2019-05-30T11:10:59.022Z,8.45
2019-05-30T11:13:28.397Z,8.00
2019-05-30T11:15:57.781Z,8.33
2019-05-30T11:18:27.159Z,7.23
2019-05-30T11:20:56.610Z,8.00
2019-05-30T11:23:25.989Z,8.25
2019-05-30T11:25:56.675Z,8.63
2019-05-30T11:28:26.140Z,9.48
2019-05-30T11:30:56.641Z,9.08
2019-05-30T11:33:26.293Z,9.80
2019-05-30T11:35:55.676Z,8.98
2019-05-30T11:38:25.323Z,8.93
2019-05-30T11:40:55.523Z,7.95
2019-05-30T11:43:24.966Z,8.15
2019-05-30T11:45:55.866Z,7.95
2019-05-30T11:48:25.419Z,8.08
2019-05-30T11:50:55.764Z,9.18
2019-05-30T11:53:25.171Z,8.73
2019-05-30T11:55:54.562Z,7.92
2019-05-30T11:58:24.408Z,8.40
2019-05-30T12:00:54.692Z,9.10
2019-05-30T12:03:24.162Z,7.92
2019-05-30T12:05:55.170Z,6.75
2019-05-30T12:08:24.607Z,5.97
2019-05-30T12:10:54.968Z,6.50
2019-05-30T12:13:24.548Z,6.67
2019-05-30T12:15:55.305Z,6.30
2019-05-30T12:18:24.888Z,5.85
2019-05-30T12:20:55.656Z,7.40
2019-05-30T12:23:25.106Z,7.45
2019-05-30T12:25:54.490Z,7.20
2019-05-30T12:28:24.132Z,10.43
2019-05-30T12:30:59.440Z,9.10
2019-05-30T12:33:24.621Z,9.48
2019-05-30T12:35:54.495Z,9.90
2019-05-30T12:38:23.906Z,10.93
2019-05-30T12:40:54.624Z,10.68
2019-05-30T12:43:24.273Z,12.13
2019-05-30T12:45:54.837Z,12.73
2019-05-30T12:48:24.309Z,11.38
2019-05-30T12:50:53.704Z,12.25
2019-05-30T12:53:23.104Z,13.28
2019-05-30T12:55:52.516Z,14.75
2019-05-30T12:58:21.947Z,12.93
2019-05-30T13:00:51.407Z,14.30
2019-05-30T13:03:20.794Z,13.68
2019-05-30T13:05:50.250Z,13.93
2019-05-30T13:08:21.975Z,12.80
2019-05-30T13:10:50.824Z,12.68
2019-05-30T13:13:20.209Z,13.22
2019-05-30T13:15:49.611Z,13.05
2019-05-30T13:18:18.974Z,11.53
2019-05-30T13:20:48.455Z,11.55
2019-05-30T13:23:17.879Z,10.65
2019-05-30T13:25:47.265Z,11.05
2019-05-30T13:28:16.646Z,10.35
2019-05-30T13:30:46.038Z,9.40
2019-05-30T13:33:15.413Z,8.83
2019-05-30T13:35:44.796Z,8.58
2019-05-30T13:38:26.053Z,8.58
2019-05-30T13:40:45.551Z,7.90
2019-05-30T13:43:14.923Z,7.90
2019-05-30T13:45:44.913Z,7.70
2019-05-30T13:48:14.289Z,7.37
2019-05-30T13:50:44.204Z,7.12
2019-05-30T13:53:13.584Z,6.40
2019-05-30T13:55:43.009Z,5.67
2019-05-30T13:58:12.388Z,6.20
2019-05-30T14:00:41.771Z,7.05
2019-05-30T14:03:11.147Z,6.37
2019-05-30T14:05:40.530Z,5.92
2019-05-30T14:08:15.979Z,5.62
2019-05-30T14:10:41.043Z,5.60
2019-05-30T14:13:11.284Z,5.50
2019-05-30T14:15:40.780Z,5.20
2019-05-30T14:18:11.182Z,4.40
2019-05-30T14:20:40.611Z,5.33
2019-05-30T14:23:09.989Z,5.12
2019-05-30T14:25:39.401Z,5.35
2019-05-30T14:28:09.856Z,5.20
2019-05-30T14:30:39.294Z,4.60
2019-05-30T14:33:08.667Z,5.55
2019-05-30T14:35:38.049Z,6.45
2019-05-30T14:38:08.626Z,5.83
2019-05-30T14:40:38.188Z,4.40
2019-05-30T14:43:07.567Z,4.08
2019-05-30T14:45:36.951Z,3.77
2019-05-30T14:48:06.589Z,3.85
2019-05-30T14:50:35.963Z,4.45
2019-05-30T14:53:06.730Z,3.40
2019-05-30T14:55:36.279Z,3.20
2019-05-30T14:58:07.044Z,3.15
2019-05-30T15:00:37.177Z,3.35
2019-05-30T15:03:09.248Z,2.98
2019-05-30T15:05:37.663Z,2.75
2019-05-30T15:08:08.407Z,3.02
2019-05-30T15:10:37.924Z,2.72
2019-05-30T15:13:07.546Z,2.02
2019-05-30T15:15:36.948Z,1.90
2019-05-30T15:18:07.112Z,2.58
2019-05-30T15:20:36.527Z,2.25
2019-05-30T15:23:05.905Z,2.02
2019-05-30T15:25:35.288Z,1.95
2019-05-30T15:28:05.884Z,2.22
2019-05-30T15:30:35.390Z,2.02
2019-05-30T15:33:04.770Z,2.00
2019-05-30T15:35:34.157Z,1.72
2019-05-30T15:38:03.558Z,1.77
2019-05-30T15:40:32.930Z,2.15
2019-05-30T15:43:02.299Z,2.00
2019-05-30T15:45:31.795Z,1.72
2019-05-30T15:48:01.144Z,1.70
2019-05-30T15:50:30.523Z,1.60
2019-05-30T15:52:59.896Z,1.80
2019-05-30T15:55:29.275Z,3.20
2019-05-30T15:57:58.651Z,1.70
2019-05-30T16:00:28.274Z,2.10
2019-05-30T16:02:57.652Z,2.15
2019-05-30T16:05:27.034Z,2.00
2019-05-30T16:07:56.420Z,1.82
2019-05-30T16:10:25.801Z,1.72
2019-05-30T16:12:55.179Z,1.70
2019-05-30T16:15:24.665Z,1.80
2019-05-30T16:17:54.047Z,1.77
2019-05-30T16:20:23.424Z,2.05
2019-05-30T16:22:53.240Z,1.90
2019-05-30T16:25:22.619Z,2.05
2019-05-30T16:27:51.996Z,1.80
2019-05-30T16:30:24.373Z,1.80
2019-05-30T16:32:52.760Z,1.95
2019-05-30T16:35:22.303Z,1.80
2019-05-30T16:37:51.656Z,2.10
2019-05-30T16:40:22.431Z,1.40
2019-05-30T16:42:51.851Z,2.22
2019-05-30T16:45:24.925Z,1.65
2019-05-30T16:47:52.665Z,1.60
2019-05-30T16:50:24.065Z,1.30
2019-05-30T16:52:53.699Z,1.50
2019-05-30T16:55:23.553Z,1.45
2019-05-30T16:57:52.936Z,1.90
2019-05-30T17:00:23.323Z,1.62
2019-05-30T17:02:53.164Z,1.80
2019-05-30T17:05:22.549Z,1.20
2019-05-30T17:07:51.924Z,1.25
2019-05-30T17:10:28.878Z,1.47
2019-05-30T17:12:52.650Z,1.40
2019-05-30T17:15:22.362Z,1.45
2019-05-30T17:17:51.753Z,1.65
2019-05-30T17:20:22.573Z,1.65
2019-05-30T17:22:51.919Z,1.45
2019-05-30T17:25:21.299Z,2.25
2019-05-30T17:27:50.678Z,2.30
2019-05-30T17:30:21.613Z,1.67
2019-05-30T17:32:51.024Z,1.70
2019-05-30T17:35:20.538Z,1.52
2019-05-30T17:37:49.916Z,1.40
2019-05-30T17:40:20.570Z,2.10
2019-05-30T17:42:50.025Z,1.65
2019-05-30T17:45:20.830Z,1.72
2019-05-30T17:47:59.451Z,1.72
2019-05-30T17:50:22.170Z,2.52
2019-05-30T17:52:51.532Z,2.33
2019-05-30T17:55:22.444Z,2.20
2019-05-30T17:57:51.825Z,2.10
2019-05-30T18:00:22.325Z,1.90
2019-05-30T18:02:51.732Z,1.82
2019-05-30T18:05:24.470Z,1.77
2019-05-30T18:07:54.061Z,2.47
2019-05-30T18:10:24.819Z,2.12
2019-05-30T18:12:54.327Z,2.25
2019-05-30T18:15:27.652Z,2.25
2019-05-30T18:17:55.355Z,2.02
2019-05-30T18:20:25.313Z,1.70
2019-05-30T18:22:54.837Z,2.90
2019-05-30T18:25:25.633Z,2.40
2019-05-30T18:27:55.033Z,1.87
2019-05-30T18:30:29.912Z,1.85
2019-05-30T18:32:59.308Z,1.62
2019-05-30T18:35:28.745Z,1.50
2019-05-30T18:38:01.276Z,1.60
2019-05-30T18:40:35.717Z,2.02
2019-05-30T18:43:06.014Z,1.95
2019-05-30T18:45:44.044Z,1.82
2019-05-30T18:48:14.034Z,1.85
2019-05-30T18:50:43.410Z,1.87
2019-05-30T18:53:12.785Z,2.30
2019-05-30T18:55:42.175Z,1.90
2019-05-30T18:58:11.559Z,2.12
2019-05-30T19:00:42.539Z,2.77
2019-05-30T19:03:11.919Z,2.30
2019-05-30T19:05:41.297Z,2.25
2019-05-30T19:08:10.985Z,2.77
2019-05-30T19:10:40.357Z,2.58
2019-05-30T19:13:09.736Z,4.87
2019-05-30T19:15:39.113Z,2.55
2019-05-30T19:18:09.375Z,2.12
2019-05-30T19:20:39.285Z,2.50
2019-05-30T19:23:08.663Z,2.40
2019-05-30T19:25:38.036Z,2.85
2019-05-30T19:28:07.416Z,3.08
2019-05-30T19:30:37.009Z,3.40
2019-05-30T19:33:06.527Z,2.47
2019-05-30T19:35:37.144Z,3.30
2019-05-30T19:38:06.860Z,2.55
2019-05-30T19:40:36.233Z,2.80
2019-05-30T19:43:05.609Z,3.60
2019-05-30T19:45:36.158Z,2.45
2019-05-30T19:48:06.381Z,3.12
2019-05-30T19:50:36.842Z,2.50
2019-05-30T19:53:06.319Z,2.65
2019-05-30T19:55:35.695Z,2.72
2019-05-30T19:58:05.162Z,2.90
2019-05-30T20:00:50.250Z,2.40
2019-05-30T20:03:07.165Z,2.33
2019-05-30T20:05:36.729Z,2.08
2019-05-30T20:08:06.380Z,2.60
2019-05-30T20:10:35.752Z,2.70
2019-05-30T20:13:05.195Z,2.80
2019-05-30T20:15:35.463Z,2.85
2019-05-30T20:18:05.091Z,2.90
2019-05-30T20:20:50.711Z,2.22
2019-05-30T20:23:05.710Z,2.40
2019-05-30T20:25:37.352Z,2.17
2019-05-30T20:28:06.678Z,2.47
2019-05-30T20:30:37.092Z,2.42
2019-05-30T20:33:06.570Z,2.15
2019-05-30T20:35:37.565Z,2.60
2019-05-30T20:38:07.051Z,2.25
2019-05-30T20:40:36.915Z,2.00
2019-05-30T20:43:06.479Z,2.30
2019-05-30T20:45:40.374Z,2.40
2019-05-30T20:48:07.047Z,2.37
2019-05-30T20:50:37.134Z,3.77
2019-05-30T20:53:06.652Z,2.30
2019-05-30T20:55:36.337Z,2.37
2019-05-30T20:58:06.043Z,2.50
2019-05-30T21:00:40.341Z,2.20
2019-05-30T21:03:10.028Z,2.10
2019-05-30T21:05:41.931Z,2.37
2019-05-30T21:08:12.559Z,2.52
2019-05-30T21:10:44.232Z,2.45
2019-05-30T21:13:13.688Z,2.27
2019-05-30T21:15:46.572Z,2.37
2019-05-30T21:18:19.493Z,2.50
2019-05-30T21:20:48.935Z,2.17
2019-05-30T21:23:18.311Z,2.85
2019-05-30T21:25:47.752Z,2.33
2019-05-30T21:28:17.083Z,2.12
2019-05-30T21:30:47.517Z,2.20
2019-05-30T21:33:17.279Z,1.95
2019-05-30T21:35:47.945Z,1.90
2019-05-30T21:38:17.630Z,2.20
2019-05-30T21:40:47.068Z,2.10
2019-05-30T21:43:16.380Z,2.47
2019-05-30T21:45:46.860Z,2.30
2019-05-30T21:48:16.379Z,2.35
2019-05-30T21:50:47.097Z,2.52
2019-05-30T21:53:16.860Z,2.22
2019-05-30T21:55:46.248Z,2.15
2019-05-30T21:58:15.619Z,2.33
2019-05-30T22:01:18.659Z,2.25
2019-05-30T22:03:48.769Z,2.65
2019-05-30T22:06:18.385Z,2.60
2019-05-30T22:08:49.244Z,2.15
2019-05-30T22:11:18.928Z,1.95
2019-05-30T22:13:48.305Z,2.20
2019-05-30T22:16:17.685Z,2.10
2019-05-30T22:18:48.052Z,2.27
2019-05-30T22:21:17.659Z,2.42
2019-05-30T22:23:48.118Z,2.20
2019-05-30T22:26:17.586Z,2.00
2019-05-30T22:28:46.976Z,2.95
2019-05-30T22:31:16.354Z,2.47
2019-05-30T22:33:46.641Z,2.50
2019-05-30T22:36:16.253Z,2.45
2019-05-30T22:38:46.750Z,2.20
2019-05-30T22:41:16.188Z,2.42
2019-05-30T22:43:46.263Z,2.17
2019-05-30T22:46:15.684Z,2.10
2019-05-30T22:48:46.388Z,2.60
2019-05-30T22:51:15.913Z,2.08
2019-05-30T22:53:46.976Z,2.58
2019-05-30T22:56:16.444Z,2.22
2019-05-30T22:58:45.814Z,2.33
2019-05-30T23:01:15.195Z,2.50
2019-05-30T23:03:45.035Z,2.00
2019-05-30T23:06:14.535Z,1.90
2019-05-30T23:08:43.908Z,2.50
2019-05-30T23:11:13.290Z,2.37
2019-05-30T23:13:42.683Z,2.20
2019-05-30T23:16:12.062Z,1.98
2019-05-30T23:18:41.438Z,2.55
2019-05-30T23:21:10.813Z,2.47
2019-05-30T23:23:40.189Z,2.45
2019-05-30T23:26:09.569Z,2.70
2019-05-30T23:28:38.945Z,2.37
2019-05-30T23:31:08.323Z,2.50
2019-05-30T23:33:37.699Z,2.30
2019-05-30T23:36:07.076Z,2.60
2019-05-30T23:38:36.452Z,2.42
2019-05-30T23:41:05.828Z,2.85
2019-05-30T23:43:35.209Z,2.50
2019-05-30T23:46:04.832Z,2.17
2019-05-30T23:48:34.208Z,2.25
2019-05-30T23:51:03.593Z,2.60
2019-05-30T23:53:32.954Z,2.40
2019-05-30T23:56:02.334Z,2.20
2019-05-30T23:58:31.716Z,1.85
